Flight Track Log - Related Links

Times and Time Zones

All times are in EDT time to prevent confusion due to time zone crossing. See the NKS416 flight status page for this flight to view local times or setup timezone preferences in your user account.

Time Position Orientation Groundspeed Altitude Reporting Facility
EDT Latitude Longitude Course Direction KTS MPH feet Rate Location/Type
Thu 10:36:48 PM 26.0728 -80.1411 86° East 160 184 500  Level Miami Center
Thu 10:37:37 PM 26.0758 -80.0950 86° East 183 211 2,100 1,930 Climbing Miami Center
Thu 10:38:43 PM 26.0861 -80.0119 82° East 280 322 4,200 1,538 Climbing Miami Center
Thu 10:39:34 PM 26.1186 -79.9506 59° Northeast 286 329 5,100 1,600 Climbing Miami Center
Thu 10:39:43 PM 26.1253 -79.9322 68° East 289 333 5,800 3,514 Climbing Miami Center
Thu 10:40:44 PM 26.1667 -79.8500 61° Northeast 297 342 9,200 2,807 Climbing Miami Center
Thu 10:41:32 PM 26.1992 -79.7906 59° Northeast 311 358 10,900 1,927 Climbing Miami Center
Thu 10:42:33 PM 26.2450 -79.6944 62° Northeast 330 380 12,700 2,033 Climbing Miami Center
Thu 10:43:33 PM 26.2992 -79.6006 57° Northeast 350 403 15,000 2,331 Climbing Miami Center
Thu 10:44:34 PM 26.3700 -79.4933 54° Northeast 378 435 17,400 1,504 Climbing Miami Center
Thu 10:50:24 PM 26.9887 -79.1260 21° North 468 539 25,300 1,396 Climbing FlightAware ADS-B
Thu 10:51:05 PM 27.0710 -79.0915 21° North 466 536 26,500 1,556 Climbing FlightAware ADS-B
Thu 10:51:45 PM 27.1515 -79.0577 21° North 469 540 27,400 1,268 Climbing FlightAware ADS-B
Thu 10:52:16 PM 27.2079 -79.0340 21° North 474 545 28,000 1,200 Climbing FlightAware ADS-B
Thu 10:52:55 PM 27.2942 -78.9979 21° North 479 551 28,800 1,200 Climbing FlightAware ADS-B
Thu 10:53:26 PM 27.3610 -78.9700 20° North 479 551 29,400 1,180 Climbing FlightAware ADS-B
Thu 10:53:56 PM 27.4219 -78.9501 13° North 472 543 30,000 1,400 Climbing FlightAware ADS-B
Thu 10:54:26 PM 27.4877 -78.9368 North 458 527 30,800 1,500 Climbing FlightAware ADS-B
Thu 10:54:56 PM 27.5463 -78.9288 North 457 526 31,500 1,125 Climbing FlightAware ADS-B
Thu 10:55:46 PM 27.6564 -78.9133 North 461 531 32,300 1,011 Climbing FlightAware ADS-B
Thu 10:56:25 PM 27.7408 -78.9016 North 462 532 33,000 1,169 Climbing FlightAware ADS-B
Thu 10:57:03 PM 27.8173 -78.8910 North 460 529 33,800 1,176 Climbing FlightAware ADS-B
Thu 10:58:07 PM 27.9531 -78.8718 North 457 526 35,000 766 Climbing FlightAware ADS-B
Thu 10:58:37 PM 28.0153 -78.8629 North 455 524 35,000  Level FlightAware ADS-B
Thu 10:59:08 PM 28.0810 -78.8535 North 453 521 35,000  Level FlightAware ADS-B
Thu 10:59:39 PM 28.1431 -78.8448 North 452 520 35,000  Level FlightAware ADS-B
Thu 11:00:18 PM 28.2263 -78.8331 North 453 521 35,000  Level FlightAware ADS-B
Thu 11:00:48 PM 28.2854 -78.8248 North 453 521 35,000  Level FlightAware ADS-B
Thu 11:01:32 PM 28.3750 -78.8125 North 448 516 35,000 -58 Level Miami Center
Thu 11:02:32 PM 28.4983 -78.7958 North 448 516 34,900 -50 Descending Miami Center
Thu 11:03:32 PM 28.6239 -78.7792 North 448 516 34,900 50 Level Miami Center
Thu 11:04:33 PM 28.7492 -78.7647 North 450 518 35,000 50 Climbing Miami Center
Thu 11:05:32 PM 28.8725 -78.7456 North 450 518 35,000  Level Miami Center
Thu 11:06:34 PM 28.9981 -78.7239 North 443 510 35,000  Level Miami Center
Thu 11:07:33 PM 29.1256 -78.7094 North 450 518 35,000 -50 Level Miami Center
Thu 11:08:33 PM 29.2592 -78.6975 North 450 518 34,900 -50 Descending Miami Center
Thu 11:09:33 PM 29.3742 -78.6756 North 445 512 34,900 50 Level Miami Center
Thu 11:10:32 PM 29.4975 -78.6561 North 445 512 35,000 50 Climbing Miami Center
Thu 11:11:33 PM 29.6228 -78.6414 North 445 512 35,000 -48 Level Miami Center
Thu 11:12:38 PM 29.7461 -78.6181 North 449 517 34,900 -48 Descending Jacksonville Center
Thu 11:13:38 PM 29.8686 -78.6008 North 443 510 34,900 50 Level Jacksonville Center
Thu 11:14:38 PM 29.9956 -78.5856 North 448 516 35,000 50 Climbing Jacksonville Center
Thu 11:15:38 PM 30.1114 -78.5589 11° North 443 510 35,000  Level Jacksonville Center
Thu 11:16:38 PM 30.2406 -78.5483 North 443 510 35,000 -50 Level Jacksonville Center
Thu 11:17:38 PM 30.3589 -78.5308 North 442 509 34,900 -50 Descending Jacksonville Center
Thu 11:18:38 PM 30.4856 -78.5131 North 449 517 34,900  Level Jacksonville Center
Thu 11:19:38 PM 30.6186 -78.4925 North 457 526 34,900 50 Level Jacksonville Center
Thu 11:20:38 PM 30.7431 -78.4697 North 457 526 35,000 50 Climbing Jacksonville Center
Thu 11:21:38 PM 30.8653 -78.4469 North 457 526 35,000  Level Jacksonville Center
Thu 11:22:38 PM 31.0003 -78.4286 North 462 532 35,000 -50 Level Jacksonville Center
Thu 11:23:38 PM 31.1372 -78.4075 North 462 532 34,900 -50 Descending Jacksonville Center
Thu 11:24:38 PM 31.2681 -78.3819 North 462 532 34,900 50 Level Jacksonville Center
Thu 11:25:38 PM 31.3967 -78.3633 North 460 529 35,000 50 Climbing Jacksonville Center
Thu 11:26:38 PM 31.5211 -78.3403 North 457 526 35,000  Level Jacksonville Center
Thu 11:27:38 PM 31.6458 -78.3219 North 462 532 35,000 -50 Level Jacksonville Center
Thu 11:28:38 PM 31.7764 -78.2983 North 462 532 34,900 -50 Descending Jacksonville Center
Thu 11:29:38 PM 31.8989 -78.2803 North 457 526 34,900  Level Jacksonville Center
Thu 11:30:38 PM 32.0275 -78.2589 North 457 526 34,900  Level Jacksonville Center
Thu 11:31:38 PM 32.1292 -78.2417 North 457 526 34,900 50 Level Jacksonville Center
Thu 11:32:38 PM 32.2825 -78.2142 North 462 532 35,000 50 Climbing Jacksonville Center
Thu 11:33:38 PM 32.4111 -78.1903 North 462 532 35,000  Level Jacksonville Center
Thu 11:34:38 PM 32.5400 -78.1739 North 462 532 35,000  Level Jacksonville Center
Thu 11:35:38 PM 32.6664 -78.1547 North 462 532 35,000 -50 Level Jacksonville Center
Thu 11:36:38 PM 32.7886 -78.1311 North 462 532 34,900 -50 Descending Jacksonville Center
Thu 11:37:38 PM 32.9156 -78.1144 North 462 532 34,900  Level Jacksonville Center
Thu 11:38:38 PM 33.0419 -78.0931 North 462 532 34,900 50 Level Jacksonville Center
Thu 11:39:38 PM 33.1706 -78.0711 North 462 532 35,000 50 Climbing Jacksonville Center
Thu 11:40:38 PM 33.2969 -78.0494 North 462 532 35,000  Level Jacksonville Center
Thu 11:41:38 PM 33.4233 -78.0300 North 462 532 35,000  Level Jacksonville Center
Thu 11:42:22 PM 33.4964 -78.0169 North 461 531 35,000 -58 Level Washington Center
Thu 11:43:22 PM 33.6178 -77.9981 North 477 549 34,900 -51 Descending Washington Center
Thu 11:44:20 PM 33.7411 -77.9792 North 460 529 34,900  Level Washington Center
Thu 11:45:20 PM 33.8558 -77.9900 356° North 432 497 34,900 50 Level Washington Center
Thu 11:46:20 PM 33.9808 -77.9986 357° North 427 491 35,000 98 Climbing Washington Center
Thu 11:47:22 PM 34.1014 -78.0122 355° North 432 497 35,100  Climbing Washington Center
Thu 11:48:20 PM 34.2222 -78.0256 355° North 432 497 35,000 -13 Descending Washington Center
Thu 11:54:57 PM 35.0210 -78.0974 355° North 451 519 35,000  Level FlightAware ADS-B
Thu 11:56:17 PM 35.2279 -78.1170 355° North 452 520 35,000  Level FlightAware ADS-B
Thu 11:56:53 PM 35.3015 -78.1238 355° North 452 520 35,000  Level FlightAware ADS-B
Thu 11:57:33 PM 35.3871 -78.1322 355° North 452 520 35,000  Level FlightAware ADS-B
Thu 11:58:13 PM 35.4707 -78.1405 355° North 451 519 35,000  Level FlightAware ADS-B
Thu 11:58:54 PM 35.5495 -78.1480 355° North 448 516 35,000  Level FlightAware ADS-B
Thu 11:59:34 PM 35.6323 -78.1558 355° North 444 511 35,000  Level FlightAware ADS-B
Fri 12:00:14 AM 35.7154 -78.1639 355° North 439 505 35,000  Level FlightAware ADS-B
Fri 12:00:54 AM 35.8006 -78.1721 355° North 436 502 35,000  Level FlightAware ADS-B
Fri 12:01:34 AM 35.8795 -78.1799 355° North 437 503 35,000 -74 Level FlightAware ADS-B
Fri 12:02:15 AM 35.9447 -78.1864 355° North 438 504 34,900  Descending FlightAware ADS-B
Fri 12:03:21 AM 36.0922 -78.2008 355° North 441 507 35,000 48 Climbing Washington Center
Fri 12:04:20 AM 36.2150 -78.2153 355° North 441 507 35,000  Level Washington Center
Fri 12:05:21 AM 36.3400 -78.2272 356° North 441 507 35,000  Level Washington Center
Fri 12:06:22 AM 36.4606 -78.2392 355° North 441 507 35,000  Level Washington Center
Fri 12:07:20 AM 36.5875 -78.2539 355° North 441 507 35,000  Level Washington Center
Fri 12:08:22 AM 36.7106 -78.2631 357° North 441 507 35,000  Level Washington Center
Fri 12:09:22 AM 36.8311 -78.2750 355° North 441 507 35,000  Level Washington Center
Fri 12:10:22 AM 36.9292 -78.2836 356° North 441 507 35,000 -50 Level Washington Center
Fri 12:11:22 AM 37.0603 -78.2936 357° North 441 507 34,900  Descending Washington Center
Fri 12:12:19 AM 37.1933 -78.3086 355° North 441 507 35,000 16 Climbing Washington Center
Fri 12:17:43 AM 37.8249 -78.3741 355° North 425 489 35,000  Level FlightAware ADS-B (KCHO)
Fri 12:18:25 AM 37.9210 -78.3842 355° North 432 497 35,000  Level FlightAware ADS-B (KCHO)
Fri 12:18:55 AM 37.9796 -78.3902 356° North 435 501 35,000 100 Level FlightAware ADS-B (KCHO)
Fri 12:19:25 AM 38.0410 -78.3963 355° North 437 503 35,100  Climbing FlightAware ADS-B (KCHO)
Fri 12:19:55 AM 38.1023 -78.4026 356° North 440 506 35,000  Descending FlightAware ADS-B (KCHO)
Fri 12:21:02 AM 38.2181 -78.4131 356° North 424 488 35,100 47 Climbing Cleveland Center
Fri 12:22:03 AM 38.3411 -78.4286 354° North 436 502 35,100 -50 Level Cleveland Center
Fri 12:23:03 AM 38.4614 -78.4397 356° North 436 502 35,000 -35 Descending Cleveland Center
Fri 12:24:56 AM 38.7106 -78.4662 355° North 440 506 35,000  Level FlightAware ADS-B (KWWD)
Fri 12:29:08 AM 39.2197 -78.5200 355° North 440 506 35,000  Level FlightAware ADS-B (KWWD)
Fri 12:29:38 AM 39.2794 -78.5261 355° North 434 499 35,000  Level FlightAware ADS-B (KWWD)
Fri 12:30:18 AM 39.3584 -78.5346 355° North 434 499 35,000  Level FlightAware ADS-B (KWWD)
Fri 12:31:51 AM 39.5193 -78.5518 355° North 436 502 35,000  Level FlightAware ADS-B
Fri 12:36:33 AM 40.1071 -78.6158 355° North 453 521 35,000  Level FlightAware ADS-B (WMSA / SZB)
Fri 12:37:11 AM 40.1592 -78.6214 355° North 431 496 35,000  Level Cleveland Center
Fri 12:38:12 AM 40.2778 -78.6353 355° North 431 496 35,000  Level Cleveland Center
Fri 12:39:12 AM 40.3986 -78.6486 355° North 434 499 35,000  Level Cleveland Center
Fri 12:40:13 AM 40.5439 -78.6642 355° North 437 503 35,000 -709 Level Cleveland Center
Fri 12:45:33 AM 41.1865 -78.7356 356° North 413 475 30,500 -852 Descending FlightAware ADS-B (CYYZ)
Fri 12:46:12 AM 41.2598 -78.7434 356° North 406 467 29,900 -929 Descending FlightAware ADS-B (CYYZ)
Fri 12:46:57 AM 41.3402 -78.7534 356° North 401 461 29,200 -935 Descending FlightAware ADS-B (CYYZ)
Fri 12:47:29 AM 41.3972 -78.7596 355° North 401 461 28,700 -1,082 Descending FlightAware ADS-B (CYYZ)
Fri 12:47:58 AM 41.4554 -78.7663 355° North 393 452 28,100 -1,119 Descending FlightAware ADS-B (CYYZ)
Fri 12:48:28 AM 41.5096 -78.7724 355° North 385 443 27,600 -900 Descending FlightAware ADS-B (CYYZ)
Fri 12:48:58 AM 41.5611 -78.7784 355° North 384 442 27,200 -1,000 Descending FlightAware ADS-B (CYYZ)
Fri 12:49:28 AM 41.6149 -78.7846 355° North 378 435 26,600 -1,000 Descending FlightAware ADS-B (CYYZ)
Fri 12:49:58 AM 41.6656 -78.7902 356° North 373 429 26,200 -885 Descending FlightAware ADS-B (CYYZ)
Fri 12:50:29 AM 41.7166 -78.7958 356° North 369 425 25,700 -1,100 Descending FlightAware ADS-B (CYYZ)
Fri 12:50:58 AM 41.7691 -78.8020 355° North 366 421 25,100 -1,017 Descending FlightAware ADS-B (CYYZ)
Fri 12:51:28 AM 41.8184 -78.8081 355° North 366 421 24,700 -984 Descending FlightAware ADS-B (CYYZ)
Fri 12:51:59 AM 41.8694 -78.8137 356° North 360 414 24,100 -1,017 Descending FlightAware ADS-B (CYYZ)
Fri 12:52:27 AM 41.9165 -78.8192 355° North 354 407 23,700 -915 Descending FlightAware ADS-B (CYYZ)
Fri 12:52:58 AM 41.9671 -78.8252 356° North 357 411 23,200 -1,082 Descending FlightAware ADS-B (CYYZ)
Fri 12:53:28 AM 42.0150 -78.8304 356° North 357 411 22,600 -984 Descending FlightAware ADS-B (CYYZ)
Fri 12:53:59 AM 42.0648 -78.8360 355° North 353 406 22,200 -1,200 Descending FlightAware ADS-B (CYYZ)
Fri 12:54:28 AM 42.1126 -78.8431 349° North 348 400 21,400 -1,627 Descending FlightAware ADS-B (CYYZ)
Fri 12:54:58 AM 42.1600 -78.8605 344° North 337 388 20,600 -1,800 Descending FlightAware ADS-B (CYYZ)
Fri 12:55:28 AM 42.2045 -78.8783 344° North 337 388 19,600 -1,900 Descending FlightAware ADS-B (CYYZ)
Fri 12:55:58 AM 42.2493 -78.8952 345° North 338 389 18,700 -1,900 Descending FlightAware ADS-B (CYYZ)
Fri 12:56:28 AM 42.2928 -78.9122 344° North 335 386 17,700 -1,869 Descending FlightAware ADS-B (CYYZ)
Fri 12:56:59 AM 42.3400 -78.9224 358° North 332 382 16,800 -2,000 Descending FlightAware ADS-B (CYYZ)
Fri 12:57:28 AM 42.3847 -78.9242 358° North 330 380 15,700 -2,136 Descending FlightAware ADS-B (CYYZ)
Fri 12:57:58 AM 42.4309 -78.9263 358° North 323 372 14,700 -1,900 Descending FlightAware ADS-B (CYYZ)
Fri 12:58:28 AM 42.4742 -78.9285 358° North 316 364 13,800 -1,900 Descending FlightAware ADS-B (CYYZ)
Fri 12:58:58 AM 42.5174 -78.9306 358° North 309 356 12,800 -1,900 Descending FlightAware ADS-B (CYYZ)
Fri 12:59:28 AM 42.5598 -78.9326 358° North 303 349 11,900 -1,600 Descending FlightAware ADS-B (CYYZ)
Fri 12:59:58 AM 42.6012 -78.9346 358° North 290 334 11,200 -1,200 Descending FlightAware ADS-B (CYYZ)
Fri 01:00:28 AM 42.6389 -78.9363 358° North 264 304 10,700 -1,418 Descending FlightAware ADS-B (CYYZ)
Fri 01:00:53 AM 42.6694 -78.9377 358° North 262 302 9,900 -1,902 Descending FlightAware ADS-B (CYYZ)
Fri 01:01:09 AM 42.6878 -78.9388 357° North 264 304 9,400 -1,800 Descending FlightAware ADS-B (CYYZ)
Fri 01:01:23 AM 42.7061 -78.9400 358° North 264 304 9,000 -1,655 Descending FlightAware ADS-B (CYYZ)
Fri 01:01:38 AM 42.7241 -78.9411 358° North 262 302 8,600 -1,600 Descending FlightAware ADS-B (CYYZ)
Fri 01:01:53 AM 42.7423 -78.9419 359° North 260 299 8,200 -1,600 Descending FlightAware ADS-B (CYYZ)
Fri 01:02:08 AM 42.7602 -78.9427 358° North 258 297 7,800 -1,600 Descending FlightAware ADS-B (CYYZ)
Fri 01:02:23 AM 42.7777 -78.9435 359° North 258 297 7,400 -1,600 Descending FlightAware ADS-B (CYYZ)
Fri 01:02:38 AM 42.7957 -78.9443 359° North 259 298 7,000 -1,200 Descending FlightAware ADS-B (CYYZ)
Fri 01:02:53 AM 42.8133 -78.9451 358° North 252 290 6,800 -774 Descending FlightAware ADS-B (CYYZ)
Fri 01:03:09 AM 42.8310 -78.9461 358° North 244 281 6,600 -600 Descending FlightAware ADS-B (CYYZ)
Fri 01:03:23 AM 42.8472 -78.9467 359° North 235 270 6,500 -600 Descending FlightAware ADS-B (CYYZ)
Fri 01:03:39 AM 42.8633 -78.9464 North 230 265 6,300 -600 Descending FlightAware ADS-B (CYYZ)
Fri 01:03:43 AM 42.8680 -78.9454 11° North 231 266 6,300 -667 Level FlightAware ADS-B (CYYZ)
Fri 01:03:48 AM 42.8734 -78.9432 17° North 231 266 6,200 -900 Descending FlightAware ADS-B (CYYZ)
Fri 01:04:03 AM 42.8889 -78.9360 19° North 228 262 6,000 -1,000 Descending FlightAware ADS-B (CYYZ)
Fri 01:04:18 AM 42.9035 -78.9295 18° North 228 262 5,700 -1,000 Descending FlightAware ADS-B (CYYZ)
Fri 01:04:33 AM 42.9181 -78.9230 17° North 227 261 5,500 -1,000 Descending FlightAware ADS-B (CYYZ)
Fri 01:04:48 AM 42.9315 -78.9171 18° North 217 250 5,200 -1,400 Descending FlightAware ADS-B (CYYZ)
Fri 01:05:03 AM 42.9469 -78.9103 18° North 216 249 4,800 -1,241 Descending FlightAware ADS-B (CYYZ)
Fri 01:05:17 AM 42.9597 -78.9047 18° North 209 241 4,600 -600 Descending FlightAware ADS-B (CYYZ)
Fri 01:05:33 AM 42.9739 -78.8984 18° North 199 229 4,500 -581 Descending FlightAware ADS-B (CYYZ)
Fri 01:05:48 AM 42.9868 -78.8926 18° North 189 217 4,300 -1,034 Descending FlightAware ADS-B (CYYZ)
Fri 01:06:02 AM 42.9985 -78.8875 18° North 186 214 4,000 -1,200 Descending FlightAware ADS-B (CYYZ)
Fri 01:06:18 AM 43.0113 -78.8819 18° North 184 212 3,700 -857 Descending FlightAware ADS-B (CYYZ)
Fri 01:06:37 AM 43.0258 -78.8756 17° North 179 206 3,500 -686 Descending FlightAware ADS-B (CYYZ)
Fri 01:06:53 AM 43.0385 -78.8698 18° North 165 190 3,300 -833 Descending FlightAware ADS-B (CYYZ)
Fri 01:07:13 AM 43.0519 -78.8637 18° North 152 175 3,000 -923 Descending FlightAware ADS-B (CYYZ)
Fri 01:08:24 AM 43.0928 -78.8456 18° North 144 166 1,900 -779 Descending Cleveland Center
Fri 01:09:24 AM 43.1097 -78.8742 309° West 127 146 1,300 -600 Descending Cleveland Center
Fri 01:11:00 AM 43.1000 -78.9333 144° Southeast  Level FlightAware Approximate
Fri 01:18:00 AM 43.1076 -78.9458 144° Southeast  Level Estimated

Login

Don't have an account? Register now (free) for customized features, flight alerts, and more!